| time (UTC) | temp F | wind direction | speed MPH | gust MPH | rain 1hr in | rain 24hr in | rain mn in | humidity % | barometer mb |
| 20260903180150 | 95 | 180 | 0.0 | 1.0 | 0.00 | 0.00 | 0.00 | 59 | 1019.1 |
| 20260903175120 | 95 | 163 | 0.0 | 0.0 | 0.00 | 0.00 | 0.00 | 62 | 1019.3 |
| 20260903174114 | 94 | 163 | 0.0 | 0.0 | 0.00 | 0.00 | 0.00 | 63 | 1019.3 |
| 20260903173126 | 94 | 163 | 0.0 | 1.0 | 0.00 | 0.00 | 0.00 | 59 | 1019.4 |
| 20260903172123 | 94 | 161 | 0.0 | 0.0 | 0.00 | 0.00 | 0.00 | 62 | 1019.5 |
| 20260903171116 | 94 | 159 | 1.0 | 4.0 | 0.00 | 0.00 | 0.00 | 58 | 1019.7 |
| 20260903170131 | 94 | 107 | 0.0 | 0.0 | 0.00 | 0.00 | 0.00 | 63 | 1019.8 |
| 20260903165125 | 93 | 98 | 1.0 | 2.0 | 0.00 | 0.00 | 0.00 | 62 | 1020.1 |
| 20260903164138 | 93 | 268 | 0.0 | 0.0 | 0.00 | 0.00 | 0.00 | 64 | 1020.1 |
| 20260903163130 | 93 | 268 | 0.0 | 1.0 | 0.00 | 0.00 | 0.00 | 64 | 1020.3 |
| 20260903162124 | 92 | 269 | 0.0 | 2.0 | 0.00 | 0.00 | 0.00 | 63 | 1020.2 |
| 20260903161121 | 93 | 264 | 0.0 | 0.0 | 0.00 | 0.00 | 0.00 | 64 | 1020.3 |
| 20260903160133 | 92 | 276 | 0.0 | 0.0 | 0.00 | 0.00 | 0.00 | 66 | 1020.4 |
| 20260903155124 | 92 | 274 | 0.0 | 1.0 | 0.00 | 0.00 | 0.00 | 65 | 1020.4 |
| 20260903154118 | 91 | 277 | 0.0 | 0.0 | 0.00 | 0.00 | 0.00 | 69 | 1020.4 |
| 20260903153134 | 91 | 276 | 0.0 | 2.0 | 0.00 | 0.00 | 0.00 | 66 | 1020.5 |
| 20260903152126 | 90 | 283 | 0.0 | 1.0 | 0.00 | 0.00 | 0.00 | 68 | 1020.5 |
| 20260903151140 | 90 | 279 | 0.0 | 2.0 | 0.00 | 0.00 | 0.00 | 68 | 1020.6 |
| 20260903150115 | 89 | 284 | 0.0 | 2.0 | 0.00 | 0.00 | 0.00 | 71 | 1020.5 |
| 20260903145146 | 89 | 287 | 0.0 | 1.0 | 0.00 | 0.00 | 0.00 | 72 | 1020.5 |
| 20260903144117 | 88 | 287 | 0.0 | 1.0 | 0.00 | 0.00 | 0.00 | 75 | 1020.5 |
| 20260903143130 | 87 | 287 | 0.0 | 1.0 | 0.00 | 0.00 | 0.00 | 76 | 1020.5 |
| 20260903142127 | 86 | 291 | 0.0 | 0.0 | 0.00 | 0.00 | 0.00 | 76 | 1020.4 |
| 20260903141120 | 85 | 291 | 0.0 | 1.0 | 0.00 | 0.00 | 0.00 | 77 | 1020.4 |
| 20260903140132 | 84 | 291 | 0.0 | 0.0 | 0.00 | 0.00 | 0.00 | 82 | 1020.4 |
| 20260903135123 | 83 | 284 | 0.0 | 0.0 | 0.00 | 0.00 | 0.00 | 82 | 1020.2 |
| 20260903134141 | 82 | 281 | 0.0 | 0.0 | 0.00 | 0.00 | 0.00 | 85 | 1020.3 |
| 20260903133115 | 81 | 281 | 0.0 | 0.0 | 0.00 | 0.00 | 0.00 | 86 | 1020.3 |
| 20260903132127 | 79 | 279 | 0.0 | 0.0 | 0.00 | 0.00 | 0.00 | 90 | 1020.3 |
| 20260903131139 | 77 | 279 | 0.0 | 0.0 | 0.00 | 0.00 | 0.00 | 94 | 1020.3 |
| 20260903130115 | 76 | 275 | 0.0 | 0.0 | 0.00 | 0.00 | 0.00 | 95 | 1020.4 |
| 20260903125125 | 75 | 269 | 0.0 | 0.0 | 0.00 | 0.00 | 0.00 | 96 | 1020.3 |
| 20260903124118 | 74 | 269 | 0.0 | 0.0 | 0.00 | 0.00 | 0.00 | 96 | 1020.3 |
| 20260903123152 | 74 | 267 | 0.0 | 0.0 | 0.00 | 0.00 | 0.00 | 96 | 1020.3 |
| 20260903122129 | 73 | 266 | 0.0 | 0.0 | 0.00 | 0.00 | 0.00 | 95 | 1020.4 |
| 20260903121141 | 73 | 182 | 0.0 | 0.0 | 0.00 | 0.00 | 0.00 | 95 | 1020.3 |
| 20260903120114 | 73 | 180 | 0.0 | 0.0 | 0.00 | 0.00 | 0.00 | 95 | 1020.3 |
| 20260903115145 | 72 | 180 | 0.0 | 0.0 | 0.00 | 0.00 | 0.00 | 95 | 1020.2 |
| 20260903114120 | 72 | 180 | 0.0 | 0.0 | 0.00 | 0.00 | 0.00 | 94 | 1020.2 |
| 20260903113114 | 72 | 180 | 0.0 | 0.0 | 0.00 | 0.00 | 0.00 | 94 | 1020.0 |
| 20260903112126 | 72 | 180 | 0.0 | 0.0 | 0.00 | 0.00 | 0.00 | 94 | 1019.9 |
| 20260903111140 | 72 | 180 | 0.0 | 0.0 | 0.00 | 0.00 | 0.00 | 94 | 1019.9 |
| 20260903110136 | 72 | 180 | 0.0 | 0.0 | 0.00 | 0.00 | 0.00 | 94 | 1019.8 |
| 20260903105126 | 72 | 180 | 0.0 | 0.0 | 0.00 | 0.00 | 0.00 | 94 | 1019.6 |
| 20260903104119 | 72 | 180 | 0.0 | 0.0 | 0.00 | 0.00 | 0.00 | 94 | 1019.6 |
| 20260903103118 | 73 | 180 | 0.0 | 0.0 | 0.00 | 0.00 | 0.00 | 93 | 1019.6 |
| 20260903102151 | 73 | 180 | 0.0 | 0.0 | 0.00 | 0.00 | 0.00 | 93 | 1019.6 |
| 20260903101123 | 73 | 180 | 0.0 | 0.0 | 0.00 | 0.00 | 0.00 | 93 | 1019.4 |
| 20260903100136 | 73 | 180 | 0.0 | 0.0 | 0.00 | 0.00 | 0.00 | 94 | 1019.2 |
| 20260903095146 | 73 | 180 | 0.0 | 0.0 | 0.00 | 0.00 | 0.00 | 94 | 1019.3 |
| 20260903094143 | 73 | 180 | 0.0 | 0.0 | 0.00 | 0.00 | 0.00 | 93 | 1019.3 |
| 20260903093116 | 73 | 180 | 0.0 | 0.0 | 0.00 | 0.00 | 0.00 | 93 | 1019.3 |
| 20260903092149 | 73 | 180 | 0.0 | 0.0 | 0.00 | 0.00 | 0.00 | 93 | 1019.1 |
| 20260903091120 | 73 | 180 | 0.0 | 0.0 | 0.00 | 0.00 | 0.00 | 93 | 1019.1 |
| 20260903090118 | 73 | 180 | 0.0 | 0.0 | 0.00 | 0.00 | 0.00 | 93 | 1019.1 |
| 20260903085128 | 74 | 180 | 0.0 | 0.0 | 0.00 | 0.00 | 0.00 | 93 | 1019.1 |
| 20260903084121 | 74 | 180 | 0.0 | 0.0 | 0.00 | 0.00 | 0.00 | 93 | 1019.1 |
| 20260903083117 | 74 | 180 | 0.0 | 0.0 | 0.00 | 0.00 | 0.00 | 93 | 1019.1 |
| 20260903082151 | 74 | 180 | 0.0 | 0.0 | 0.00 | 0.00 | 0.00 | 93 | 1019.0 |
| 20260903081123 | 74 | 180 | 0.0 | 0.0 | 0.00 | 0.00 | 0.00 | 93 | 1019.1 |
| 20260903080117 | 74 | 180 | 0.0 | 0.0 | 0.00 | 0.00 | 0.00 | 93 | 1018.9 |
| 20260903075132 | 74 | 180 | 0.0 | 0.0 | 0.00 | 0.00 | 0.00 | 93 | 1019.0 |
| 20260903074125 | 74 | 180 | 0.0 | 0.0 | 0.00 | 0.00 | 0.00 | 93 | 1018.8 |
| 20260903073118 | 74 | 180 | 0.0 | 0.0 | 0.00 | 0.00 | 0.00 | 93 | 1018.8 |
| 20260903072131 | 74 | 180 | 0.0 | 0.0 | 0.00 | 0.00 | 0.00 | 93 | 1019.0 |
| 20260903071127 | 74 | 180 | 0.0 | 0.0 | 0.00 | 0.00 | 0.00 | 93 | 1019.1 |
| 20260903070121 | 75 | 180 | 0.0 | 0.0 | 0.00 | 0.00 | 0.00 | 92 | 1019.0 |
| 20260903065152 | 75 | 180 | 0.0 | 1.0 | 0.00 | 0.00 | 0.00 | 92 | 1019.1 |
| 20260903064125 | 75 | 180 | 0.0 | 0.0 | 0.00 | 0.00 | 0.00 | 92 | 1019.0 |
| 20260903063122 | 75 | 180 | 0.0 | 1.0 | 0.00 | 0.00 | 0.00 | 92 | 1019.0 |
| 20260903062115 | 75 | 180 | 0.0 | 0.0 | 0.00 | 0.00 | 0.00 | 92 | 1019.0 |
| 20260903061128 | 75 | 180 | 0.0 | 0.0 | 0.00 | 0.00 | 0.00 | 92 | 1019.0 |
| 20260903060126 | 75 | 180 | 0.0 | 0.0 | 0.00 | 0.00 | 0.00 | 91 | 1019.0 |
| 20260903055116 | 75 | 180 | 0.0 | 0.0 | 0.00 | 0.00 | 0.00 | 91 | 1018.9 |
| 20260903054128 | 75 | 180 | 0.0 | 0.0 | 0.00 | 0.00 | 0.00 | 91 | 1019.1 |
| 20260903053123 | 76 | 179 | 0.0 | 0.0 | 0.00 | 0.00 | 0.00 | 91 | 1019.1 |
| 20260903052119 | 76 | 179 | 0.0 | 0.0 | 0.00 | 0.00 | 0.00 | 91 | 1019.1 |
| 20260903051151 | 76 | 179 | 0.0 | 0.0 | 0.00 | 0.00 | 0.00 | 91 | 1019.1 |
| 20260903050124 | 76 | 179 | 0.0 | 0.0 | 0.00 | 0.00 | 0.00 | 90 | 1019.1 |
| 20260903045118 | 76 | 179 | 0.0 | 0.0 | 0.00 | 0.00 | 0.00 | 90 | 1019.1 |
| 20260903044131 | 76 | 179 | 0.0 | 0.0 | 0.00 | 0.00 | 0.00 | 90 | 1018.9 |
| 20260903043124 | 76 | 179 | 0.0 | 0.0 | 0.00 | 0.00 | 0.00 | 90 | 1018.9 |
| 20260903042138 | 76 | 179 | 0.0 | 0.0 | 0.00 | 0.00 | 0.00 | 90 | 1019.0 |
| 20260903041115 | 76 | 179 | 0.0 | 0.0 | 0.00 | 0.00 | 0.00 | 89 | 1019.0 |
| 20260903040129 | 77 | 179 | 0.0 | 0.0 | 0.00 | 0.00 | 0.00 | 89 | 1019.0 |
| 20260903035120 | 77 | 179 | 0.0 | 0.0 | 0.00 | 0.00 | 0.00 | 89 | 1019.0 |
| 20260903034155 | 77 | 179 | 0.0 | 0.0 | 0.00 | 0.00 | 0.00 | 88 | 1019.2 |
| 20260903033132 | 77 | 179 | 0.0 | 0.0 | 0.00 | 0.00 | 0.00 | 88 | 1019.3 |
| 20260903032125 | 77 | 179 | 0.0 | 0.0 | 0.00 | 0.00 | 0.00 | 87 | 1019.3 |
| 20260903031117 | 78 | 179 | 0.0 | 0.0 | 0.00 | 0.00 | 0.00 | 87 | 1019.2 |
| 20260903030114 | 78 | 179 | 0.0 | 0.0 | 0.00 | 0.00 | 0.00 | 87 | 1019.4 |
| 20260903025126 | 78 | 179 | 0.0 | 0.0 | 0.00 | 0.00 | 0.00 | 86 | 1019.4 |
| 20260903024120 | 78 | 179 | 0.0 | 0.0 | 0.00 | 0.00 | 0.00 | 86 | 1019.5 |
| 20260903023134 | 79 | 179 | 0.0 | 0.0 | 0.00 | 0.00 | 0.00 | 86 | 1019.4 |
| 20260903022131 | 79 | 178 | 0.0 | 0.0 | 0.00 | 0.00 | 0.00 | 86 | 1019.5 |
| 20260903021124 | 79 | 178 | 0.0 | 0.0 | 0.00 | 0.00 | 0.00 | 84 | 1019.6 |
| 20260903020117 | 80 | 178 | 0.0 | 0.0 | 0.00 | 0.00 | 0.00 | 84 | 1019.8 |
| 20260903015129 | 80 | 178 | 0.0 | 0.0 | 0.00 | 0.00 | 0.00 | 83 | 1019.9 |
| 20260903014127 | 80 | 178 | 0.0 | 0.0 | 0.00 | 0.00 | 0.00 | 83 | 1019.9 |
| 20260903013119 | 81 | 178 | 0.0 | 0.0 | 0.00 | 0.00 | 0.00 | 82 | 1019.9 |
| 20260903012133 | 81 | 178 | 0.0 | 0.0 | 0.00 | 0.00 | 0.00 | 80 | 1019.8 |
| 20260903011132 | 82 | 178 | 0.0 | 0.0 | 0.00 | 0.00 | 0.00 | 80 | 1019.7 |
| 20260903010123 | 82 | 179 | 0.0 | 0.0 | 0.00 | 0.00 | 0.00 | 81 | 1019.6 |
| 20260903005134 | 83 | 179 | 0.0 | 0.0 | 0.00 | 0.00 | 0.00 | 80 | 1019.4 |
| 20260903004126 | 84 | 179 | 0.0 | 0.0 | 0.00 | 0.00 | 0.00 | 80 | 1019.3 |
| 20260903003122 | 84 | 179 | 0.0 | 0.0 | 0.00 | 0.00 | 0.00 | 79 | 1019.2 |
| 20260903002116 | 85 | 179 | 0.0 | 0.0 | 0.00 | 0.00 | 0.00 | 77 | 1019.2 |
| 20260903001130 | 86 | 179 | 0.0 | 0.0 | 0.00 | 0.00 | 0.00 | 75 | 1019.1 |
| 20260903000127 | 87 | 179 | 0.0 | 0.0 | 0.00 | 0.00 | 0.00 | 74 | 1019.0 |
| 20260902235119 | 88 | 179 | 0.0 | 0.0 | 0.00 | 0.00 | 0.00 | 71 | 1019.1 |
| 20260902234132 | 89 | 179 | 0.0 | 0.0 | 0.00 | 0.00 | 0.00 | 68 | 1019.1 |
| 20260902233126 | 90 | 179 | 0.0 | 0.0 | 0.00 | 0.00 | 0.00 | 64 | 1019.0 |
| 20260902232123 | 91 | 179 | 0.0 | 0.0 | 0.00 | 0.00 | 0.00 | 63 | 1019.1 |
| 20260902231117 | 92 | 179 | 0.0 | 0.0 | 0.00 | 0.00 | 0.00 | 62 | 1019.1 |
| 20260902230132 | 92 | 179 | 0.0 | 0.0 | 0.00 | 0.00 | 0.00 | 61 | 1019.1 |
| 20260902225126 | 92 | 179 | 0.0 | 0.0 | 0.00 | 0.00 | 0.00 | 61 | 1019.0 |
| 20260902224138 | 92 | 179 | 0.0 | 0.0 | 0.00 | 0.00 | 0.00 | 61 | 1018.9 |
| 20260902223131 | 92 | 178 | 0.0 | 0.0 | 0.00 | 0.00 | 0.00 | 60 | 1018.8 |
| 20260902222122 | 92 | 178 | 0.0 | 0.0 | 0.00 | 0.00 | 0.00 | 57 | 1018.8 |
| 20260902221140 | 93 | 177 | 0.0 | 0.0 | 0.00 | 0.00 | 0.00 | 60 | 1018.9 |
| 20260902220151 | 93 | 179 | 0.0 | 1.0 | 0.00 | 0.00 | 0.00 | 60 | 1018.9 |
| 20260902215120 | 94 | 286 | 0.0 | 0.0 | 0.00 | 0.00 | 0.00 | 58 | 1019.0 |
| 20260902213127 | 94 | 102 | 0.0 | 1.0 | 0.00 | 0.00 | 0.00 | 56 | 1019.1 |
| 20260902212141 | 94 | 184 | 0.0 | 1.0 | 0.00 | 0.00 | 0.00 | 55 | 1019.1 |
| 20260902211115 | 94 | 207 | 0.0 | 2.0 | 0.00 | 0.00 | 0.00 | 55 | 1019.1 |
| 20260902210128 | 94 | 271 | 0.0 | 0.0 | 0.00 | 0.00 | 0.00 | 50 | 1019.0 |
| 20260902205123 | 94 | 271 | 0.0 | 0.0 | 0.00 | 0.00 | 0.00 | 52 | 1019.2 |
| 20260902204117 | 94 | 271 | 0.0 | 0.0 | 0.00 | 0.00 | 0.00 | 51 | 1019.2 |
| 20260902203130 | 94 | 271 | 0.0 | 1.0 | 0.00 | 0.00 | 0.00 | 49 | 1019.2 |
| 20260902202143 | 94 | 273 | 0.0 | 0.0 | 0.00 | 0.00 | 0.00 | 50 | 1019.2 |
| 20260902201119 | 95 | 273 | 0.0 | 0.0 | 0.00 | 0.00 | 0.00 | 51 | 1019.2 |
| 20260902200131 | 95 | 273 | 1.0 | 3.0 | 0.00 | 0.00 | 0.00 | 53 | 1019.4 |
| 20260902195122 | 95 | 248 | 0.0 | 0.0 | 0.00 | 0.00 | 0.00 | 50 | 1019.5 |
| 20260902194119 | 95 | 248 | 0.0 | 0.0 | 0.00 | 0.00 | 0.00 | 47 | 1019.6 |
| 20260902193132 | 96 | 248 | 0.0 | 1.0 | 0.00 | 0.00 | 0.00 | 46 | 1019.6 |
| 20260902192124 | 96 | 248 | 0.0 | 0.0 | 0.00 | 0.00 | 0.00 | 51 | 1019.8 |
| 20260902191138 | 96 | 248 | 0.0 | 2.0 | 0.00 | 0.00 | 0.00 | 49 | 1019.9 |
| 20260902190136 | 96 | 255 | 0.0 | 1.0 | 0.00 | 0.00 | 0.00 | 50 | 1019.9 |
| 20260902185130 | 95 | 244 | 0.0 | 1.0 | 0.00 | 0.00 | 0.00 | 48 | 1020.0 |
| 20260902184128 | 95 | 38 | 0.0 | 1.0 | 0.00 | 0.00 | 0.00 | 52 | 1020.2 |
| 20260902183121 | 95 | 40 | 0.0 | 1.0 | 0.00 | 0.00 | 0.00 | 51 | 1020.3 |
| 20260902182127 | 95 | 274 | 0.0 | 2.0 | 0.00 | 0.00 | 0.00 | 50 | 1020.4 |